Time;durP1;ratioP1;P1;durP2;ratioP2;P2;SDS_P1;SDS_P2;PMS_P1;PMS_P2;Temp;Humidity;BMP_temperature;BMP_pressure;BME280_temperature;BME280_humidity;BME280_pressure;Samples;Min_cycle;Max_cycle;Signal;HPM_P1;HPM_P2
2022/12/19 00:02:05;;;;;;;38.53;18.60;;;;;;;-141.97;100.00;47863.13;4991865;28;20167;-88
2022/12/19 00:04:31;;;;;;;40.50;18.80;;;;;;;-141.97;100.00;47990.00;4991956;28;20261;-88
2022/12/19 00:06:59;;;;;;;40.93;19.70;;;;;;;-141.97;100.00;47772.78;4991711;28;20671;-89
2022/12/19 00:09:26;;;;;;;37.80;18.50;;;;;;;-141.97;100.00;47890.06;5008406;28;20831;-89
2022/12/19 00:11:51;;;;;;;40.53;19.50;;;;;;;-141.97;100.00;47895.81;4993009;28;20874;-89
2022/12/19 00:14:17;;;;;;;37.23;17.47;;;;;;;-141.97;100.00;47899.66;5008060;28;20418;-89
2022/12/19 00:16:42;;;;;;;38.97;18.90;;;;;;;-141.97;100.00;47890.06;4992972;28;20167;-89
2022/12/19 00:19:09;;;;;;;42.33;20.30;;;;;;;-141.97;100.00;47903.50;5000487;28;20175;-86
2022/12/19 00:21:36;;;;;;;41.93;20.27;;;;;;;-141.97;100.00;47926.56;5009807;28;20168;-88
2022/12/19 00:24:04;;;;;;;42.40;19.27;;;;;;;-141.97;100.00;47916.97;4995893;28;20963;-88
2022/12/19 00:26:35;;;;;;;41.70;19.77;;;;;;;-141.97;100.00;47857.38;4993492;28;20852;-89
2022/12/19 00:29:03;;;;;;;41.40;19.10;;;;;;;-141.97;100.00;47922.72;4992507;28;20461;-87
2022/12/19 00:31:32;;;;;;;43.73;19.87;;;;;;;-141.97;100.00;47878.53;4993464;28;20501;-89
2022/12/19 00:33:58;;;;;;;44.40;19.20;;;;;;;-141.97;100.00;47922.72;4992877;28;20411;-88
2022/12/19 00:36:26;;;;;;;42.03;18.97;;;;;;;-141.97;100.00;47926.56;4995838;28;20472;-88
2022/12/19 00:38:53;;;;;;;39.20;19.50;;;;;;;-141.97;100.00;47916.97;4994217;28;20430;-87
2022/12/19 00:41:21;;;;;;;40.87;18.90;;;;;;;-141.97;100.00;47899.66;4994099;28;20418;-87
2022/12/19 00:43:54;;;;;;;42.37;19.67;;;;;;;-141.97;100.00;47934.25;5011622;28;20421;-88
2022/12/19 00:46:20;;;;;;;41.07;17.47;;;;;;;-141.97;100.00;47924.66;5011770;28;20484;-88
2022/12/19 00:48:46;;;;;;;40.83;19.37;;;;;;;-141.97;100.00;47930.41;5015517;28;20441;-88
2022/12/19 00:51:12;;;;;;;39.33;18.43;;;;;;;-141.97;100.00;47874.69;5015851;28;20561;-89
2022/12/19 00:53:38;;;;;;;39.43;18.37;;;;;;;-141.97;100.00;47930.41;5015418;28;20624;-89
2022/12/19 00:56:07;;;;;;;40.27;19.37;;;;;;;-141.97;100.00;47928.50;5015529;28;20401;-88
2022/12/19 00:58:33;;;;;;;43.43;18.33;;;;;;;-141.97;100.00;47936.19;5015805;28;20163;-85
2022/12/19 01:01:24;;;;;;;40.50;18.83;;;;;;;-141.97;100.00;47909.28;5001551;28;20221;-89
2022/12/19 01:03:49;;;;;;;43.43;19.57;;;;;;;-141.97;100.00;47899.66;5025772;28;20410;-89
2022/12/19 01:06:16;;;;;;;39.50;18.80;;;;;;;-141.97;100.00;47890.06;5023736;28;20456;-89
2022/12/19 01:08:41;;;;;;;42.10;18.30;;;;;;;-141.97;100.00;47957.34;5004143;28;20198;-89
2022/12/19 01:11:07;;;;;;;39.10;18.13;;;;;;;-141.97;100.00;47945.81;5019535;28;20445;-88
2022/12/19 01:13:34;;;;;;;40.00;17.53;;;;;;;-141.97;100.00;47880.44;5016678;28;20162;-88
2022/12/19 01:16:05;;;;;;;35.07;17.20;;;;;;;-141.97;100.00;47941.94;5016611;28;20427;-88
2022/12/19 01:18:31;;;;;;;38.90;17.37;;;;;;;-141.97;100.00;47916.97;5016462;28;20161;-88
2022/12/19 01:21:03;;;;;;;38.67;17.67;;;;;;;-141.97;100.00;47849.69;5016976;28;20414;-89
2022/12/19 01:23:29;;;;;;;40.93;17.80;;;;;;;-141.97;100.00;47865.06;5021941;28;20858;-89
2022/12/19 01:25:55;;;;;;;38.60;17.03;;;;;;;-141.97;100.00;47968.88;5025830;28;20464;-88
2022/12/19 01:28:21;;;;;;;38.50;17.07;;;;;;;-141.97;100.00;47926.56;5024825;28;20550;-89
2022/12/19 01:30:46;;;;;;;41.00;18.63;;;;;;;-141.97;100.00;47916.97;5019437;28;20842;-88
2022/12/19 01:33:14;;;;;;;47.33;18.77;;;;;;;-141.97;100.00;47888.13;5015206;28;20174;-88
2022/12/19 01:35:41;;;;;;;39.50;18.30;;;;;;;-141.97;100.00;47893.91;5015003;28;20639;-88
2022/12/19 01:38:10;;;;;;;43.07;19.17;;;;;;;-141.97;100.00;47951.56;5023828;28;20441;-85
2022/12/19 01:40:36;;;;;;;42.90;18.97;;;;;;;-141.97;100.00;47947.72;5012930;28;20913;-86
2022/12/19 01:43:04;;;;;;;40.50;19.13;;;;;;;-141.97;100.00;47878.53;5015194;28;20190;-89
2022/12/19 01:45:32;;;;;;;41.83;19.33;;;;;;;-141.97;100.00;47938.09;4997549;28;20273;-88
2022/12/19 01:48:06;;;;;;;41.90;19.33;;;;;;;-141.97;100.00;47980.41;5015082;28;20461;-89
2022/12/19 01:50:43;;;;;;;46.30;19.70;;;;;;;-141.97;100.00;47934.25;5014921;28;20416;-88
2022/12/19 01:53:11;;;;;;;43.67;19.50;;;;;;;-141.97;100.00;47918.88;5014672;28;20409;-87
2022/12/19 01:55:39;;;;;;;42.97;19.40;;;;;;;-141.97;100.00;47941.94;5015065;28;20398;-88
2022/12/19 01:58:07;;;;;;;39.93;18.37;;;;;;;-141.97;100.00;47934.25;5014503;28;20398;-89
2022/12/19 02:00:32;;;;;;;40.07;19.03;;;;;;;-141.97;100.00;47961.19;5014916;28;20485;-88
2022/12/19 02:03:10;;;;;;;44.43;20.23;;;;;;;-141.97;100.00;47909.28;4996867;28;20452;-89
2022/12/19 02:05:36;;;;;;;42.43;19.30;;;;;;;-141.97;100.00;47851.59;5014278;28;20190;-88
2022/12/19 02:08:02;;;;;;;42.17;19.60;;;;;;;-141.97;100.00;47830.47;5014250;28;20483;-88
2022/12/19 02:10:27;;;;;;;41.77;18.53;;;;;;;-141.97;100.00;47978.47;5014108;28;20497;-88
2022/12/19 02:12:53;;;;;;;43.67;19.70;;;;;;;-141.97;100.00;47913.13;5014547;28;20689;-89
2022/12/19 02:15:19;;;;;;;44.47;19.53;;;;;;;-141.97;100.00;47913.13;4996520;28;20174;-87
2022/12/19 02:18:07;;;;;;;42.10;19.40;;;;;;;-141.97;100.00;47926.56;5014410;28;20178;-88
2022/12/19 02:20:54;;;;;;;43.70;19.13;;;;;;;-141.97;100.00;47924.66;5014280;28;20475;-88
2022/12/19 02:23:49;;;;;;;43.73;19.37;;;;;;;-141.97;100.00;47865.06;5013886;28;20402;-88
2022/12/19 02:26:52;;;;;;;38.87;17.70;;;;;;;-141.97;100.00;47884.28;5014020;28;20539;-89
2022/12/19 02:29:23;;;;;;;42.33;18.57;;;;;;;-141.97;100.00;47916.97;5021423;28;20405;-87
2022/12/19 02:32:02;;;;;;;41.60;17.77;;;;;;;-141.97;100.00;47915.03;5023516;28;20417;-89
2022/12/19 02:34:33;;;;;;;37.40;16.77;;;;;;;-141.97;100.00;47899.66;4997420;28;20416;-88
2022/12/19 02:37:07;;;;;;;39.33;18.27;;;;;;;-141.97;100.00;47941.94;5014061;28;20504;-88
2022/12/19 02:40:01;;;;;;;37.23;16.70;;;;;;;-141.97;100.00;47903.50;5014303;28;20410;-88
2022/12/19 02:42:34;;;;;;;35.00;16.23;;;;;;;-141.97;100.00;47916.97;4974653;28;20426;-88
2022/12/19 02:45:05;;;;;;;38.73;15.90;;;;;;;-141.97;100.00;47936.19;4975203;28;20470;-88
2022/12/19 02:47:31;;;;;;;39.47;16.77;;;;;;;-141.97;100.00;47926.56;4974969;28;20442;-88
2022/12/19 02:49:57;;;;;;;33.10;15.30;;;;;;;-141.97;100.00;47872.75;4974370;28;20407;-88
2022/12/19 02:52:22;;;;;;;37.13;15.60;;;;;;;-141.97;100.00;47915.03;4972339;28;20211;-88
2022/12/19 02:54:55;;;;;;;34.00;15.57;;;;;;;-141.97;100.00;47884.28;4972537;28;20172;-89
2022/12/19 02:57:29;;;;;;;34.13;15.77;;;;;;;-141.97;100.00;47901.59;4972456;28;20584;-89
2022/12/19 03:00:07;;;;;;;33.93;15.37;;;;;;;-141.97;100.00;47932.34;4972285;28;20436;-88
2022/12/19 03:02:57;;;;;;;31.57;14.60;;;;;;;-141.97;100.00;47918.88;4956196;28;20442;-89
2022/12/19 03:05:26;;;;;;;32.73;14.80;;;;;;;-141.97;100.00;47941.94;4972550;28;21044;-88
2022/12/19 03:08:16;;;;;;;33.50;15.00;;;;;;;-141.97;100.00;47949.66;4956204;28;20434;-89
2022/12/19 03:10:48;;;;;;;31.20;14.33;;;;;;;-141.97;100.00;47993.84;4970216;28;20407;-88
2022/12/19 03:13:41;;;;;;;33.47;14.10;;;;;;;-141.97;100.00;47941.94;4972178;28;20428;-85
2022/12/19 03:16:09;;;;;;;36.27;15.47;;;;;;;-141.97;100.00;47945.81;4914652;29;20489;-88
2022/12/19 03:18:35;;;;;;;31.03;13.87;;;;;;;-141.97;100.00;47926.56;4902261;29;20425;-88
2022/12/19 03:21:07;;;;;;;30.63;13.53;;;;;;;-141.97;100.00;47930.41;4935635;29;20512;-90
2022/12/19 03:23:33;;;;;;;30.87;13.97;;;;;;;-141.97;100.00;47915.03;4945531;29;20297;-88
2022/12/19 03:26:05;;;;;;;31.50;14.37;;;;;;;-141.97;100.00;47924.66;4927642;29;20465;-88
2022/12/19 03:29:02;;;;;;;30.97;14.60;;;;;;;-141.97;100.00;47901.59;4939144;29;20421;-88
2022/12/19 03:31:30;;;;;;;32.30;14.53;;;;;;;-141.97;100.00;47926.56;4938015;29;20855;-88
2022/12/19 03:34:05;;;;;;;36.00;14.40;;;;;;;-141.97;100.00;47859.28;4934265;29;20429;-89
2022/12/19 03:36:46;;;;;;;33.27;14.87;;;;;;;-141.97;100.00;47915.03;4934101;29;20484;-90
2022/12/19 03:39:13;;;;;;;33.83;14.07;;;;;;;-141.97;100.00;47905.44;4934178;29;20413;-89
2022/12/19 03:44:28;;;;;;;31.73;13.63;;;;;;;-141.97;100.00;47961.19;4935203;29;20952;-89
2022/12/19 03:47:03;;;;;;;34.77;15.27;;;;;;;-141.97;100.00;47909.28;4934934;29;20544;-89
2022/12/19 03:49:28;;;;;;;33.03;13.77;;;;;;;-141.97;100.00;47926.56;4938062;29;20948;-89
2022/12/19 03:52:23;;;;;;;32.23;14.77;;;;;;;-141.97;100.00;47901.59;4935219;28;20418;-89
2022/12/19 03:55:12;;;;;;;32.20;13.83;;;;;;;-141.97;100.00;47928.50;5011925;28;20317;-88
2022/12/19 03:58:17;;;;;;;30.20;13.17;;;;;;;-141.97;100.00;47888.13;5013469;28;20441;-89
2022/12/19 04:00:48;;;;;;;32.33;13.27;;;;;;;-141.97;100.00;47957.34;5013762;28;20416;-89
2022/12/19 04:03:18;;;;;;;32.13;14.10;;;;;;;-141.97;100.00;47993.84;5014375;28;20460;-88
2022/12/19 04:05:47;;;;;;;31.53;13.60;;;;;;;-141.97;100.00;47930.41;5014373;28;20460;-89
2022/12/19 04:08:14;;;;;;;30.53;13.27;;;;;;;-141.97;100.00;47865.06;4996484;28;20405;-89
2022/12/19 04:11:03;;;;;;;31.23;13.50;;;;;;;-141.97;100.00;47922.72;4995241;28;20817;-89
2022/12/19 04:13:46;;;;;;;31.80;13.97;;;;;;;-141.97;100.00;47932.34;4995529;28;20509;-89
2022/12/19 04:16:18;;;;;;;31.70;14.00;;;;;;;-141.97;100.00;47995.78;5027806;28;20394;-87
2022/12/19 04:18:50;;;;;;;29.50;12.90;;;;;;;-141.97;100.00;47907.34;5013814;28;20400;-89
2022/12/19 04:21:24;;;;;;;32.67;14.53;;;;;;;-141.97;100.00;47918.88;5023864;28;20912;-90
2022/12/19 04:23:56;;;;;;;32.33;14.07;;;;;;;-141.97;100.00;47859.28;5052879;28;20543;-87
2022/12/19 04:26:23;;;;;;;34.83;15.10;;;;;;;-141.97;100.00;47884.28;5052242;28;20452;-88
2022/12/19 04:28:53;;;;;;;32.27;14.50;;;;;;;-141.97;100.00;47915.03;5052296;28;20400;-89
2022/12/19 04:31:19;;;;;;;30.30;13.80;;;;;;;-141.97;100.00;47930.41;5052555;28;20550;-88
2022/12/19 04:33:45;;;;;;;30.03;13.60;;;;;;;-141.97;100.00;47932.34;5052266;28;20483;-88
2022/12/19 04:36:11;;;;;;;34.00;14.57;;;;;;;-141.97;100.00;47990.00;5052061;28;20447;-89
2022/12/19 04:38:36;;;;;;;31.83;14.23;;;;;;;-141.97;100.00;47918.88;5051997;28;20688;-89
2022/12/19 04:41:02;;;;;;;34.40;14.43;;;;;;;-141.97;100.00;47938.09;5052122;28;20446;-89
2022/12/19 04:43:27;;;;;;;32.57;13.73;;;;;;;-141.97;100.00;47915.03;5052110;28;20173;-88
2022/12/19 04:45:53;;;;;;;33.00;15.17;;;;;;;-141.97;100.00;47970.78;5052180;28;20237;-91
2022/12/19 04:48:18;;;;;;;33.37;14.87;;;;;;;-141.97;100.00;48020.78;5053936;28;20200;-89
2022/12/19 04:50:44;;;;;;;33.73;15.00;;;;;;;-141.97;100.00;47943.88;5034124;28;20607;-89
2022/12/19 04:53:09;;;;;;;32.47;14.40;;;;;;;-141.97;100.00;47895.81;5051759;28;20157;-89
2022/12/19 04:55:35;;;;;;;32.20;15.17;;;;;;;-141.97;100.00;47820.84;5052127;28;20169;-89
2022/12/19 04:58:04;;;;;;;34.00;14.57;;;;;;;-141.97;100.00;47940.03;5034161;28;20188;-90
2022/12/19 05:00:30;;;;;;;35.93;15.57;;;;;;;-141.97;100.00;47870.81;5052054;28;20180;-88
2022/12/19 05:02:55;;;;;;;34.07;15.53;;;;;;;-141.97;100.00;47976.56;5051459;28;20888;-87
2022/12/19 05:05:21;;;;;;;34.93;15.70;;;;;;;-141.97;100.00;47897.75;5051605;28;20213;-89
2022/12/19 05:07:46;;;;;;;34.63;15.13;;;;;;;-141.97;100.00;47934.25;5051132;28;20201;-89
2022/12/19 05:10:12;;;;;;;35.13;16.50;;;;;;;-141.97;100.00;47847.75;5034044;28;20337;-89
2022/12/19 05:12:37;;;;;;;37.33;16.53;;;;;;;-141.97;100.00;47776.63;5051448;28;20189;-87
2022/12/19 05:15:04;;;;;;;36.20;16.03;;;;;;;-141.97;100.00;47982.31;5051167;28;20168;-88
2022/12/19 05:17:30;;;;;;;36.43;16.97;;;;;;;-141.97;100.00;47811.25;5051184;28;20154;-89
2022/12/19 05:19:55;;;;;;;36.87;16.50;;;;;;;-141.97;100.00;47799.72;5032996;28;20891;-88
2022/12/19 05:22:21;;;;;;;41.17;17.97;;;;;;;-141.97;100.00;47922.72;5050212;28;20197;-88
2022/12/19 05:24:46;;;;;;;37.77;17.10;;;;;;;-141.97;100.00;47849.69;5033271;28;20205;-89
2022/12/19 05:27:11;;;;;;;37.47;16.77;;;;;;;-141.97;100.00;47918.88;5057409;28;20162;-89
2022/12/19 05:29:37;;;;;;;37.37;17.37;;;;;;;-141.97;100.00;47951.56;5058823;28;20157;-89
2022/12/19 05:32:02;;;;;;;36.47;16.40;;;;;;;-141.97;100.00;47868.91;5055510;28;20163;-89
2022/12/19 05:34:28;;;;;;;37.93;16.33;;;;;;;-141.97;100.00;47949.66;5064602;28;20216;-88
2022/12/19 05:36:53;;;;;;;39.27;17.23;;;;;;;-141.97;100.00;47938.09;5077694;28;20246;-88
2022/12/19 05:39:18;;;;;;;38.87;16.60;;;;;;;-141.97;100.00;47916.97;5073307;28;20621;-89
2022/12/19 05:41:44;;;;;;;35.10;16.27;;;;;;;-141.97;100.00;47941.94;5059083;28;20166;-89
2022/12/19 05:44:09;;;;;;;39.87;18.13;;;;;;;-141.97;100.00;47932.34;5054558;28;20256;-89
2022/12/19 05:46:35;;;;;;;37.63;16.17;;;;;;;-141.97;100.00;47820.84;5038899;28;20196;-89
2022/12/19 05:49:00;;;;;;;38.03;16.87;;;;;;;-141.97;100.00;47915.03;5057207;28;20201;-90
2022/12/19 05:51:25;;;;;;;41.40;17.90;;;;;;;-141.97;100.00;47905.44;5039460;28;20239;-89
2022/12/19 05:53:51;;;;;;;37.63;16.50;;;;;;;-141.97;100.00;47840.06;5064801;28;20241;-90
2022/12/19 05:56:20;;;;;;;37.90;17.27;;;;;;;-141.97;100.00;47918.88;5064419;28;20644;-88
2022/12/19 05:58:46;;;;;;;39.37;18.70;;;;;;;-141.97;100.00;47916.97;5060839;28;20248;-89
2022/12/19 06:01:17;;;;;;;39.77;18.30;;;;;;;-141.97;100.00;47961.19;5058957;28;20427;-88
2022/12/19 06:03:43;;;;;;;39.67;17.50;;;;;;;-141.97;100.00;47905.44;5053932;28;20161;-84
2022/12/19 06:06:13;;;;;;;33.90;16.13;;;;;;;-141.97;100.00;47884.28;5053077;28;20467;-87
2022/12/19 06:08:40;;;;;;;34.20;15.57;;;;;;;-141.97;100.00;47895.81;5057776;28;20408;-88
2022/12/19 06:11:07;;;;;;;38.30;17.60;;;;;;;-141.97;100.00;47911.19;5036840;28;20411;-88
2022/12/19 06:13:33;;;;;;;35.90;16.47;;;;;;;-141.97;100.00;47938.09;5054811;28;20490;-88
2022/12/19 06:16:04;;;;;;;36.70;17.27;;;;;;;-141.97;100.00;47876.59;5054938;28;21074;-89
2022/12/19 06:18:30;;;;;;;37.73;17.00;;;;;;;-141.97;100.00;47838.16;5035849;28;20515;-88
2022/12/19 06:21:04;;;;;;;39.27;16.40;;;;;;;-141.97;100.00;47999.63;5053791;28;20496;-89
2022/12/19 06:23:32;;;;;;;38.73;16.57;;;;;;;-141.97;100.00;47928.50;5036060;28;20179;-88
2022/12/19 06:25:59;;;;;;;33.87;16.20;;;;;;;-141.97;100.00;47882.38;5040064;28;20467;-88
2022/12/19 06:28:25;;;;;;;34.33;15.83;;;;;;;-141.97;100.00;47824.69;5040106;28;20439;-88
2022/12/19 06:30:51;;;;;;;38.93;16.43;;;;;;;-141.97;100.00;47853.53;5035654;28;20438;-88
2022/12/19 06:33:17;;;;;;;35.73;17.07;;;;;;;-141.97;100.00;47922.72;5035297;28;20915;-90
2022/12/19 06:35:43;;;;;;;40.33;17.73;;;;;;;-141.97;100.00;47905.44;5035138;28;20799;-87
2022/12/19 06:38:08;;;;;;;36.67;16.67;;;;;;;-141.97;100.00;47911.19;5053114;28;20295;-90
2022/12/19 06:43:18;;;;;;;35.37;16.00;;;;;;;-141.97;100.00;47895.81;5053197;28;20219;-88
2022/12/19 06:45:43;;;;;;;32.37;15.53;;;;;;;-141.97;99.72;47938.09;5052129;28;20451;-88
2022/12/19 06:48:08;;;;;;;33.90;16.17;;;;;;;-141.97;100.00;47888.13;5053616;28;20600;-89
2022/12/19 06:50:34;;;;;;;37.63;15.70;;;;;;;-141.97;99.26;47865.06;5035471;28;20192;-89
2022/12/19 06:53:00;;;;;;;34.37;15.70;;;;;;;-141.97;98.87;47870.81;5074255;28;20177;-87
2022/12/19 06:55:26;;;;;;;34.70;16.40;;;;;;;-141.97;99.47;47882.38;5037610;28;20251;-88
2022/12/19 06:57:51;;;;;;;39.33;17.67;;;;;;;-141.97;99.38;47926.56;5054065;28;20673;-87
2022/12/19 07:00:16;;;;;;;36.50;17.43;;;;;;;-141.97;99.92;47963.09;5054703;28;20165;-88
2022/12/19 07:02:44;;;;;;;39.93;17.87;;;;;;;-141.97;99.59;47880.44;5053254;28;20172;-89
2022/12/19 07:05:11;;;;;;;39.20;17.67;;;;;;;-141.97;99.76;47884.28;5052762;28;20197;-89
2022/12/19 07:07:36;;;;;;;42.83;19.97;;;;;;;-141.97;98.92;47963.09;5052777;28;20860;-88
2022/12/19 07:10:03;;;;;;;35.43;15.40;;;;;;;-141.97;98.05;47953.50;5053010;28;20431;-89
2022/12/19 07:12:29;;;;;;;33.30;15.50;;;;;;;-141.97;98.17;47945.81;5053277;28;20165;-89
2022/12/19 07:14:54;;;;;;;35.07;15.83;;;;;;;-141.97;97.66;47922.72;5052439;28;20490;-89
2022/12/19 07:17:22;;;;;;;34.97;16.27;;;;;;;-141.97;97.98;47907.34;5053319;28;20200;-89
2022/12/19 07:19:54;;;;;;;33.77;15.17;;;;;;;-141.97;97.68;47949.66;5036094;28;20227;-88
2022/12/19 07:22:21;;;;;;;36.17;15.80;;;;;;;-141.97;97.55;47891.97;5035645;28;20180;-88
2022/12/19 07:24:47;;;;;;;35.33;15.40;;;;;;;-141.97;96.61;47941.94;5053867;28;20197;-87
2022/12/19 07:27:12;;;;;;;40.70;16.87;;;;;;;-141.97;96.77;47972.72;5054451;28;20544;-88
2022/12/19 07:29:37;;;;;;;33.93;15.23;;;;;;;-141.97;96.32;47895.81;5054818;28;20240;-88
2022/12/19 07:32:03;;;;;;;38.57;15.67;;;;;;;-141.97;96.94;47840.06;5054162;28;20173;-89
2022/12/19 07:34:28;;;;;;;36.43;14.87;;;;;;;-141.97;95.46;47945.81;5034869;28;20177;-89
2022/12/19 07:36:54;;;;;;;34.43;15.53;;;;;;;-141.97;95.60;47826.63;5052557;28;20662;-90
2022/12/19 07:39:20;;;;;;;37.07;16.87;;;;;;;-141.97;95.02;47978.47;5059788;28;20169;-90
2022/12/19 07:41:46;;;;;;;38.43;15.90;;;;;;;-141.97;96.56;47918.88;5054172;28;20564;-89
2022/12/19 07:44:12;;;;;;;44.57;18.30;;;;;;;-141.97;96.79;47980.41;5054172;28;20165;-89
2022/12/19 07:46:38;;;;;;;42.80;18.23;;;;;;;-141.97;96.05;47893.91;5036311;28;20321;-88
2022/12/19 07:49:04;;;;;;;36.87;16.47;;;;;;;-141.97;94.64;47903.50;5053712;28;20219;-89
2022/12/19 07:51:29;;;;;;;36.67;16.80;;;;;;;-141.97;95.38;47872.75;5034625;28;20178;-88
2022/12/19 07:53:55;;;;;;;45.07;21.87;;;;;;;-141.97;94.26;48028.47;5052726;28;20256;-88
2022/12/19 07:56:20;;;;;;;44.43;22.13;;;;;;;-141.97;94.16;47938.09;5052050;28;20161;-89
2022/12/19 07:58:45;;;;;;;173.37;58.63;;;;;;;-141.97;95.07;47945.81;5053749;28;20189;-89
2022/12/19 08:01:11;;;;;;;84.70;32.73;;;;;;;-141.97;93.87;47903.50;5055387;28;20162;-89
2022/12/19 08:03:37;;;;;;;102.47;49.80;;;;;;;-141.97;93.66;47918.88;5054934;28;20165;-89
2022/12/19 08:06:04;;;;;;;43.10;19.20;;;;;;;-141.97;93.61;47928.50;5052669;28;20246;-89
2022/12/19 08:08:30;;;;;;;95.60;36.23;;;;;;;-141.97;93.84;47872.75;5053636;28;20222;-89
2022/12/19 08:11:08;;;;;;;37.50;16.07;;;;;;;-141.97;93.96;47970.78;5046491;28;20644;-89
2022/12/19 08:13:34;;;;;;;33.60;15.53;;;;;;;-141.97;94.07;47884.28;5043777;28;20586;-89
2022/12/19 08:16:00;;;;;;;52.87;25.53;;;;;;;-141.97;93.05;47868.91;5047536;28;20176;-88
2022/12/19 08:18:25;;;;;;;38.93;17.63;;;;;;;-141.97;94.03;47855.44;5054154;28;20761;-91
2022/12/19 08:20:51;;;;;;;57.23;26.53;;;;;;;-141.97;93.78;47945.81;5052321;28;20603;-89
2022/12/19 08:23:16;;;;;;;36.93;15.60;;;;;;;-141.97;92.90;47882.38;5055831;28;20185;-87
2022/12/19 08:25:41;;;;;;;33.40;15.40;;;;;;;-141.97;93.50;47880.44;5060213;28;20193;-88
2022/12/19 08:28:07;;;;;;;38.33;16.40;;;;;;;-141.97;94.20;47943.88;5053867;28;20176;-89
2022/12/19 08:30:32;;;;;;;34.07;16.17;;;;;;;-141.97;94.94;48013.06;5051514;28;20550;-89
2022/12/19 08:32:58;;;;;;;31.67;14.47;;;;;;;-141.97;92.60;47845.84;5033890;28;20239;-89
2022/12/19 08:35:23;;;;;;;32.37;14.30;;;;;;;-141.97;92.10;47949.66;5051618;28;20246;-88
2022/12/19 08:37:48;;;;;;;31.07;14.27;;;;;;;-141.97;93.11;47918.88;5051954;28;20399;-88
2022/12/19 08:40:14;;;;;;;302.27;72.23;;;;;;;-141.97;92.00;47865.06;5064623;28;20189;-85
2022/12/19 08:42:39;;;;;;;145.83;41.73;;;;;;;-141.97;92.48;47842.00;5057832;28;20169;-89
2022/12/19 08:45:05;;;;;;;313.17;86.00;;;;;;;-141.97;92.29;47907.34;5034709;28;20211;-88
2022/12/19 08:47:30;;;;;;;121.00;43.23;;;;;;;-141.97;92.96;47863.13;5051959;28;20181;-88
2022/12/19 08:49:56;;;;;;;63.00;24.90;;;;;;;-141.97;91.82;47724.75;5033732;28;20173;-89
2022/12/19 08:52:21;;;;;;;97.23;37.00;;;;;;;-141.97;92.32;47903.50;5051743;28;20477;-88
2022/12/19 08:54:47;;;;;;;37.00;15.73;;;;;;;-141.97;91.92;47903.50;5051027;28;20237;-89
2022/12/19 08:57:12;;;;;;;39.20;18.03;;;;;;;-141.97;91.33;47832.38;5033926;28;20571;-89
2022/12/19 08:59:37;;;;;;;73.53;31.37;;;;;;;-141.97;92.03;47845.84;5051481;28;20626;-88
2022/12/19 09:02:03;;;;;;;31.73;15.03;;;;;;;-141.97;92.10;47866.97;5051080;28;20544;-89
2022/12/19 09:04:28;;;;;;;33.27;14.27;;;;;;;-141.97;91.83;47793.94;5033226;28;20161;-90
2022/12/19 09:06:55;;;;;;;36.03;16.13;;;;;;;-141.97;91.72;47911.19;5051179;28;20172;-88
2022/12/19 09:09:20;;;;;;;58.27;26.73;;;;;;;-141.97;91.71;47949.66;5053878;28;20555;-88
2022/12/19 09:11:45;;;;;;;46.80;21.37;;;;;;;-141.97;92.20;47840.06;5058979;28;20176;-89
2022/12/19 09:14:11;;;;;;;39.00;16.87;;;;;;;-141.97;92.50;47865.06;5059267;28;20166;-87
2022/12/19 09:16:36;;;;;;;38.40;17.90;;;;;;;-141.97;91.79;47845.84;5056203;28;20192;-87
2022/12/19 09:19:01;;;;;;;35.03;16.37;;;;;;;-141.97;91.77;47801.63;5055084;28;20165;-89
2022/12/19 09:21:29;;;;;;;70.47;31.07;;;;;;;-141.97;91.32;47878.53;5055580;28;20161;-89
2022/12/19 09:23:57;;;;;;;34.57;17.37;;;;;;;-141.97;90.70;47963.09;5056067;28;20223;-88
2022/12/19 09:26:24;;;;;;;39.20;17.73;;;;;;;-141.97;91.09;47897.75;5060585;28;20197;-87
2022/12/19 09:28:49;;;;;;;131.30;47.77;;;;;;;-141.97;90.03;47851.59;5063645;28;20165;-86
2022/12/19 09:31:18;;;;;;;75.80;32.13;;;;;;;-141.97;91.04;47851.59;5043227;28;20235;-89
2022/12/19 09:33:44;;;;;;;92.93;46.43;;;;;;;-141.97;91.58;47932.34;5055527;28;20165;-87
2022/12/19 09:36:15;;;;;;;77.33;35.83;;;;;;;-141.97;92.02;47949.66;5054511;28;20161;-88
2022/12/19 09:38:40;;;;;;;61.70;29.90;;;;;;;-141.97;92.08;47797.78;5054701;28;20256;-89
2022/12/19 09:41:34;;;;;;;33.73;16.27;;;;;;;-141.97;90.50;47905.44;5055703;28;20638;-89
2022/12/19 09:44:02;;;;;;;28.47;13.80;;;;;;;-141.97;91.19;47924.66;5054985;28;20174;-90
2022/12/19 09:46:43;;;;;;;29.83;14.00;;;;;;;-141.97;91.66;47926.56;5036909;28;21001;-90
2022/12/19 09:49:17;;;;;;;35.30;15.37;;;;;;;-141.97;91.17;47886.22;5036807;28;20449;-89
2022/12/19 09:51:49;;;;;;;33.43;13.83;;;;;;;-141.97;91.15;47920.81;5037049;28;20173;-88
2022/12/19 09:54:22;;;;;;;28.90;13.03;;;;;;;-141.97;90.16;47849.69;5054668;28;20166;-88
2022/12/19 09:56:51;;;;;;;31.13;13.37;;;;;;;-141.97;89.95;47880.44;5054829;28;20204;-85
2022/12/19 09:59:29;;;;;;;29.80;13.43;;;;;;;-141.97;91.00;47891.97;5039532;28;20187;-89
2022/12/19 10:02:19;;;;;;;24.23;11.73;;;;;;;-141.97;90.14;47861.22;5053300;28;20180;-89
2022/12/19 10:04:54;;;;;;;32.07;12.37;;;;;;;-141.97;90.33;47811.25;5047846;28;20184;-89
2022/12/19 10:07:20;;;;;;;43.53;13.03;;;;;;;-141.97;89.25;47880.44;5043303;28;20302;-90
2022/12/19 10:09:46;;;;;;;28.97;11.57;;;;;;;-141.97;87.70;47888.13;5044398;28;20227;-89
2022/12/19 10:12:20;;;;;;;28.13;11.93;;;;;;;-141.97;88.06;47888.13;5061718;28;20166;-88
2022/12/19 10:15:16;;;;;;;47.90;13.20;;;;;;;-141.97;88.34;47926.56;5043596;28;20169;-89
2022/12/19 10:18:12;;;;;;;25.10;11.50;;;;;;;-141.97;88.67;47905.44;4977512;28;20643;-89
2022/12/19 10:20:44;;;;;;;25.03;12.03;;;;;;;-141.97;88.55;47928.50;4977212;28;20227;-89
2022/12/19 10:23:46;;;;;;;32.77;12.20;;;;;;;-141.97;87.93;47866.97;4988555;28;20292;-89
2022/12/19 10:26:22;;;;;;;79.43;15.43;;;;;;;-141.97;86.49;47941.94;4907440;29;20313;-88
2022/12/19 10:29:18;;;;;;;87.77;13.93;;;;;;;-141.97;85.95;47899.66;4903215;29;20198;-89
2022/12/19 10:31:57;;;;;;;48.50;13.57;;;;;;;-141.97;87.46;47890.06;4899531;29;20191;-89
2022/12/19 10:34:28;;;;;;;49.33;19.23;;;;;;;-141.97;87.93;47897.75;4898009;29;20174;-88
2022/12/19 10:37:01;;;;;;;279.27;114.60;;;;;;;-141.97;87.04;47909.28;4896809;29;20839;-89
2022/12/19 10:39:47;;;;;;;95.50;33.77;;;;;;;-141.97;87.92;47847.75;4895819;29;20262;-89
2022/12/19 10:42:22;;;;;;;35.53;16.63;;;;;;;-141.97;86.87;47899.66;4895795;29;20205;-89
2022/12/19 10:44:49;;;;;;;27.73;12.83;;;;;;;-141.97;84.81;47918.88;4895960;29;20404;-89
2022/12/19 10:47:16;;;;;;;42.13;18.10;;;;;;;-141.97;84.44;47886.22;4896208;29;20271;-89
2022/12/19 10:49:42;;;;;;;36.50;13.07;;;;;;;-141.97;85.82;47897.75;4896051;29;20239;-89
2022/12/19 10:52:10;;;;;;;46.60;19.43;;;;;;;-141.97;87.33;47838.16;4896340;29;20198;-87
2022/12/19 10:54:42;;;;;;;52.60;20.00;;;;;;;-141.97;87.81;47888.13;4923777;29;20193;-89
2022/12/19 10:57:27;;;;;;;34.57;14.87;;;;;;;-141.97;88.88;47857.38;4936391;29;20626;-89
2022/12/19 11:00:04;;;;;;;52.73;25.97;;;;;;;-141.97;90.56;47792.03;4937528;29;20264;-91
2022/12/19 11:02:47;;;;;;;39.90;18.47;;;;;;;-141.97;90.33;47916.97;4989500;28;20216;-88
2022/12/19 11:05:22;;;;;;;33.57;15.10;;;;;;;-141.97;91.23;47924.66;5035408;28;20201;-89
2022/12/19 11:08:07;;;;;;;37.93;16.07;;;;;;;-141.97;90.45;47911.19;5035548;28;20227;-89
2022/12/19 11:10:42;;;;;;;67.03;33.30;;;;;;;-141.97;90.25;47922.72;4971633;28;20212;-90
2022/12/19 11:13:47;;;;;;;38.10;16.60;;;;;;;-141.97;88.00;47922.72;4952637;29;20251;-89
2022/12/19 11:16:21;;;;;;;36.83;14.90;;;;;;;-141.97;88.50;47926.56;4952654;29;20236;-90